Time;durP1;ratioP1;P1;durP2;ratioP2;P2;SDS_P1;SDS_P2;PMS_P1;PMS_P2;Temp;Humidity;BMP_temperature;BMP_pressure;BME280_temperature;BME280_humidity;BME280_pressure;Samples;Min_cycle;Max_cycle;Signal;HPM_P1;HPM_P2
2022/03/31 00:00:50;;;;;;;4.05;1.60;;;18.60;47.60;;;;;;6233395;23;20261;-83
2022/03/31 00:03:17;;;;;;;1.92;1.38;;;18.70;46.90;;;;;;6208569;23;20185;-84
2022/03/31 00:05:43;;;;;;;5.63;1.80;;;18.70;47.10;;;;;;6234024;23;20188;-85
2022/03/31 00:08:13;;;;;;;2.60;1.77;;;18.60;46.80;;;;;;6184111;23;20145;-85
2022/03/31 00:10:41;;;;;;;2.88;1.65;;;18.60;47.40;;;;;;6158925;23;20154;-86
2022/03/31 00:13:10;;;;;;;3.47;1.63;;;18.60;47.50;;;;;;6157939;23;20232;-85
2022/03/31 00:15:36;;;;;;;2.00;1.58;;;18.70;46.90;;;;;;6159001;23;20240;-84
2022/03/31 00:18:05;;;;;;;3.58;1.80;;;18.60;47.30;;;;;;6207199;23;20149;-83
2022/03/31 00:20:32;;;;;;;2.60;1.40;;;18.60;47.40;;;;;;6133428;23;20153;-84
2022/03/31 00:23:03;;;;;;;2.55;1.67;;;18.60;47.50;;;;;;6182397;23;20157;-85
2022/03/31 00:25:31;;;;;;;2.70;1.73;;;18.60;47.70;;;;;;6233451;23;20165;-83
2022/03/31 00:28:03;;;;;;;2.95;1.50;;;18.60;47.10;;;;;;6208444;23;20150;-83
2022/03/31 00:30:30;;;;;;;2.72;1.60;;;18.60;47.30;;;;;;6153587;23;20169;-83
2022/03/31 00:33:01;;;;;;;3.75;1.55;;;18.60;47.50;;;;;;6177944;23;20192;-84
2022/03/31 00:35:27;;;;;;;4.82;1.63;;;18.50;47.60;;;;;;6203392;23;20127;-84
2022/03/31 00:37:52;;;;;;;2.22;1.58;;;18.60;47.70;;;;;;6177780;23;20138;-84
2022/03/31 00:40:19;;;;;;;4.70;1.70;;;18.60;48.00;;;;;;6178665;23;20142;-83
2022/03/31 00:42:49;;;;;;;3.03;1.73;;;18.60;47.60;;;;;;6203368;23;20181;-84
2022/03/31 00:45:19;;;;;;;2.13;1.50;;;18.50;47.10;;;;;;6204792;23;20162;-84
2022/03/31 00:47:44;;;;;;;2.40;1.55;;;18.60;47.20;;;;;;6179115;23;20484;-84
2022/03/31 00:50:11;;;;;;;3.00;1.63;;;18.50;47.20;;;;;;6203372;23;20133;-83
2022/03/31 00:52:38;;;;;;;2.60;1.58;;;18.60;46.90;;;;;;6178743;23;20514;-83
2022/03/31 00:55:09;;;;;;;3.22;1.60;;;18.60;47.50;;;;;;6178663;23;20855;-83
2022/03/31 00:57:35;;;;;;;2.88;1.73;;;18.50;47.60;;;;;;6179361;23;20145;-83
2022/03/31 01:00:07;;;;;;;4.07;1.70;;;18.50;48.10;;;;;;6178577;23;20158;-84
2022/03/31 01:02:39;;;;;;;4.82;1.70;;;18.40;47.50;;;;;;6130132;23;20154;-83
2022/03/31 01:05:08;;;;;;;2.42;1.58;;;18.40;47.70;;;;;;6104550;23;20188;-85
2022/03/31 01:07:37;;;;;;;3.10;1.70;;;18.50;47.30;;;;;;6129242;23;20150;-82
2022/03/31 01:10:08;;;;;;;4.70;2.00;;;18.50;47.30;;;;;;6104662;23;20233;-83
2022/03/31 01:12:36;;;;;;;2.38;1.92;;;18.50;48.00;;;;;;6178310;23;20142;-85
2022/03/31 01:15:18;;;;;;;3.40;1.55;;;18.50;48.00;;;;;;6128026;23;20165;-83
2022/03/31 01:17:46;;;;;;;2.75;1.60;;;18.50;47.30;;;;;;6109311;23;20185;-83
2022/03/31 01:20:15;;;;;;;3.35;1.60;;;18.50;48.00;;;;;;6178812;23;20134;-83
2022/03/31 01:22:40;;;;;;;3.45;1.90;;;18.50;47.30;;;;;;6178352;23;20150;-83
2022/03/31 01:25:07;;;;;;;2.53;1.73;;;18.50;47.90;;;;;;6201864;23;20170;-83
2022/03/31 01:27:35;;;;;;;3.40;1.60;;;18.50;46.90;;;;;;6153760;23;20454;-83
2022/03/31 01:30:06;;;;;;;3.20;1.60;;;18.50;47.70;;;;;;6203551;23;20191;-83
2022/03/31 01:32:32;;;;;;;1.88;1.67;;;18.50;48.30;;;;;;6183575;23;20138;-83
2022/03/31 01:35:07;;;;;;;2.63;1.50;;;18.50;47.00;;;;;;6208149;23;20148;-83
2022/03/31 01:37:34;;;;;;;3.17;1.70;;;18.50;47.80;;;;;;6233474;23;20136;-83
2022/03/31 01:40:00;;;;;;;3.05;1.55;;;18.40;47.30;;;;;;6233471;23;20163;-83
2022/03/31 01:42:27;;;;;;;2.80;1.50;;;18.50;47.70;;;;;;6183276;23;20142;-84
2022/03/31 01:44:54;;;;;;;2.88;1.60;;;18.50;47.50;;;;;;6183667;23;20169;-84
2022/03/31 01:47:20;;;;;;;2.38;1.40;;;18.50;47.50;;;;;;6207669;23;20145;-83
2022/03/31 01:49:47;;;;;;;3.05;1.70;;;18.50;47.40;;;;;;6208022;23;20134;-83
2022/03/31 01:52:13;;;;;;;2.60;1.77;;;18.50;47.00;;;;;;6233437;23;20150;-85
2022/03/31 01:54:42;;;;;;;3.30;1.52;;;18.50;47.80;;;;;;6208587;23;20164;-84
2022/03/31 01:57:13;;;;;;;2.90;1.75;;;18.40;47.60;;;;;;6182413;23;20228;-84
2022/03/31 01:59:43;;;;;;;4.03;1.70;;;18.50;47.20;;;;;;6182830;23;20176;-83
2022/03/31 02:02:14;;;;;;;4.03;1.65;;;18.50;48.00;;;;;;6157344;23;20149;-83
2022/03/31 02:04:41;;;;;;;1.90;1.50;;;18.50;47.10;;;;;;6157968;23;20153;-84
2022/03/31 02:07:07;;;;;;;2.30;1.52;;;18.50;47.30;;;;;;6232616;23;20138;-82
2022/03/31 02:09:33;;;;;;;2.92;1.52;;;18.50;46.70;;;;;;6183408;23;20133;-84
2022/03/31 02:11:59;;;;;;;2.58;1.70;;;18.50;48.20;;;;;;6182661;23;20184;-83
2022/03/31 02:14:25;;;;;;;1.90;1.48;;;18.50;47.00;;;;;;6233209;23;20500;-85
2022/03/31 02:16:52;;;;;;;2.28;1.60;;;18.40;48.10;;;;;;6207862;23;20150;-83
2022/03/31 02:19:18;;;;;;;3.55;1.60;;;18.40;47.00;;;;;;6207308;23;20554;-83
2022/03/31 02:21:44;;;;;;;4.15;1.63;;;18.40;47.30;;;;;;6206856;23;20152;-84
2022/03/31 02:24:09;;;;;;;2.30;1.40;;;18.40;46.80;;;;;;6232539;23;20570;-82
2022/03/31 02:26:39;;;;;;;3.15;1.42;;;18.50;47.20;;;;;;6232065;23;20179;-82
2022/03/31 02:29:05;;;;;;;3.30;1.60;;;18.50;47.20;;;;;;6132355;23;20258;-83
2022/03/31 02:31:32;;;;;;;3.05;1.58;;;18.40;46.90;;;;;;6232442;23;20149;-83
2022/03/31 02:34:02;;;;;;;2.47;1.50;;;18.50;47.40;;;;;;6207737;23;20138;-82
2022/03/31 02:36:32;;;;;;;3.42;1.60;;;18.30;47.70;;;;;;6182091;23;20232;-83
2022/03/31 02:39:02;;;;;;;3.67;1.63;;;18.30;47.90;;;;;;6157205;23;20153;-83
2022/03/31 02:41:38;;;;;;;2.60;1.63;;;18.40;47.20;;;;;;6182094;23;20593;-85
2022/03/31 02:44:05;;;;;;;2.78;1.80;;;18.40;47.20;;;;;;6158615;23;20157;-83
2022/03/31 02:46:37;;;;;;;2.58;1.67;;;18.40;47.40;;;;;;6231590;23;20169;-83
2022/03/31 02:49:07;;;;;;;2.70;1.60;;;18.40;47.00;;;;;;6232704;23;20142;-84
2022/03/31 02:51:33;;;;;;;3.13;1.60;;;18.30;47.50;;;;;;6181988;23;20168;-84
2022/03/31 02:57:03;;;;;;;1.92;1.45;;;18.40;47.80;;;;;;6234320;23;20149;-83
2022/03/31 02:59:33;;;;;;;4.25;1.70;;;18.30;47.30;;;;;;6232968;23;20152;-82
2022/03/31 03:01:59;;;;;;;2.95;1.67;;;18.30;47.40;;;;;;6183915;23;20153;-83
2022/03/31 03:04:25;;;;;;;2.88;1.73;;;18.40;47.70;;;;;;6260807;23;20140;-85
2022/03/31 03:06:51;;;;;;;4.30;1.60;;;18.40;47.10;;;;;;6210500;23;20616;-83
2022/03/31 03:09:19;;;;;;;3.55;1.63;;;18.40;46.80;;;;;;6234269;23;20134;-83
2022/03/31 03:11:46;;;;;;;2.38;1.75;;;18.40;47.00;;;;;;6234255;23;20149;-84
2022/03/31 03:14:13;;;;;;;3.20;1.67;;;18.40;48.00;;;;;;6260349;23;20192;-82
2022/03/31 03:16:44;;;;;;;3.05;1.50;;;18.30;47.70;;;;;;6233682;23;20156;-83
2022/03/31 03:19:14;;;;;;;4.05;1.73;;;18.30;48.40;;;;;;6159356;23;20160;-83
2022/03/31 03:21:44;;;;;;;2.03;1.60;;;18.40;47.40;;;;;;6157769;23;20154;-84
2022/03/31 03:24:16;;;;;;;2.75;1.58;;;18.30;47.40;;;;;;6183006;23;20157;-83
2022/03/31 03:26:42;;;;;;;1.90;1.33;;;18.40;47.60;;;;;;6158151;23;20189;-83
2022/03/31 03:29:07;;;;;;;1.98;1.60;;;18.30;47.00;;;;;;6233662;23;20204;-83
2022/03/31 03:31:33;;;;;;;3.15;1.50;;;18.40;47.20;;;;;;6233939;23;20176;-83
2022/03/31 03:34:03;;;;;;;2.33;1.67;;;18.40;47.30;;;;;;6234223;23;20129;-84
2022/03/31 03:36:33;;;;;;;2.05;1.52;;;18.30;47.80;;;;;;6159090;23;20157;-83
2022/03/31 03:39:06;;;;;;;2.75;1.73;;;18.30;47.40;;;;;;6159228;23;20504;-84
2022/03/31 03:41:32;;;;;;;3.00;1.58;;;18.40;47.50;;;;;;6160089;23;20160;-83
2022/03/31 03:44:04;;;;;;;2.25;1.67;;;18.30;47.40;;;;;;6208470;23;20156;-85
2022/03/31 03:46:38;;;;;;;3.25;1.50;;;18.30;47.20;;;;;;6182965;23;20185;-83
2022/03/31 03:49:08;;;;;;;2.53;1.60;;;18.30;47.80;;;;;;6183230;23;20191;-82
2022/03/31 03:51:44;;;;;;;2.88;1.55;;;18.30;47.50;;;;;;6183541;23;20209;-83
2022/03/31 03:54:11;;;;;;;3.85;1.77;;;18.30;47.60;;;;;;6183142;23;20153;-83
2022/03/31 03:56:39;;;;;;;2.83;1.50;;;18.30;47.80;;;;;;6234024;23;20145;-82
2022/03/31 03:59:05;;;;;;;2.35;1.48;;;18.30;46.80;;;;;;6234547;23;20228;-83
2022/03/31 04:01:36;;;;;;;2.72;1.70;;;18.30;47.70;;;;;;6234318;23;20196;-88
2022/03/31 04:04:08;;;;;;;2.10;1.40;;;18.30;46.80;;;;;;6208430;23;20175;-82
2022/03/31 04:06:34;;;;;;;2.42;1.27;;;18.40;47.60;;;;;;6182611;23;20181;-83
2022/03/31 04:08:59;;;;;;;3.85;1.92;;;18.20;47.10;;;;;;6234151;23;20212;-82
2022/03/31 04:11:25;;;;;;;2.25;1.50;;;18.30;46.80;;;;;;6233337;23;20176;-82
2022/03/31 04:13:51;;;;;;;2.40;1.48;;;18.30;47.10;;;;;;6233674;23;20572;-83
2022/03/31 04:16:21;;;;;;;3.28;1.70;;;18.30;47.50;;;;;;6260444;23;20186;-83
2022/03/31 04:18:51;;;;;;;3.33;1.73;;;18.30;47.40;;;;;;6183179;23;20156;-83
2022/03/31 04:21:17;;;;;;;2.78;1.70;;;18.30;47.30;;;;;;6182724;23;20172;-82
2022/03/31 04:23:47;;;;;;;2.80;1.70;;;18.30;47.90;;;;;;6234022;23;20146;-83
2022/03/31 04:26:12;;;;;;;2.85;1.70;;;18.30;47.10;;;;;;6158124;23;20256;-82
2022/03/31 04:28:38;;;;;;;2.80;1.77;;;18.30;47.70;;;;;;6207607;23;20146;-83
2022/03/31 04:31:04;;;;;;;1.92;1.73;;;18.30;47.50;;;;;;6208831;23;20216;-83
2022/03/31 04:33:30;;;;;;;2.45;1.52;;;18.30;47.40;;;;;;6233639;23;20136;-82
2022/03/31 04:35:56;;;;;;;2.08;1.30;;;18.20;47.30;;;;;;6233779;23;20149;-84
2022/03/31 04:38:22;;;;;;;2.67;1.38;;;18.30;47.70;;;;;;6233880;23;20187;-83
2022/03/31 04:40:48;;;;;;;2.38;1.67;;;18.20;47.90;;;;;;6233992;23;20154;-82
2022/03/31 04:43:18;;;;;;;2.45;1.55;;;18.20;48.10;;;;;;6208867;23;20493;-84
2022/03/31 04:45:51;;;;;;;3.38;1.63;;;18.20;48.30;;;;;;6159133;23;20184;-83
2022/03/31 04:48:17;;;;;;;1.60;1.50;;;18.10;48.20;;;;;;6183558;23;20580;-84
2022/03/31 04:50:53;;;;;;;2.38;1.83;;;18.20;48.20;;;;;;6234686;23;20132;-83
2022/03/31 04:53:19;;;;;;;3.10;1.48;;;18.10;48.30;;;;;;6184040;23;20153;-82
2022/03/31 04:55:45;;;;;;;3.10;1.55;;;18.10;48.50;;;;;;6234758;23;20618;-82
2022/03/31 04:58:15;;;;;;;1.90;1.58;;;18.10;48.30;;;;;;6260219;23;20149;-82
2022/03/31 05:00:41;;;;;;;2.90;1.67;;;18.10;48.10;;;;;;6135564;23;20157;-82
2022/03/31 05:03:07;;;;;;;2.65;1.67;;;18.10;48.30;;;;;;6234931;23;20570;-82
2022/03/31 05:05:33;;;;;;;2.40;1.70;;;18.10;48.20;;;;;;6234426;23;20161;-83
2022/03/31 05:07:59;;;;;;;2.58;1.70;;;18.10;47.90;;;;;;6232465;23;20589;-84
2022/03/31 05:10:30;;;;;;;3.15;1.80;;;18.10;48.00;;;;;;6228969;23;20176;-83
2022/03/31 05:12:56;;;;;;;2.58;1.55;;;18.20;47.80;;;;;;6155678;23;20145;-83
2022/03/31 05:15:26;;;;;;;2.35;1.70;;;18.20;48.00;;;;;;6179322;23;20456;-84
2022/03/31 05:17:55;;;;;;;2.42;1.73;;;18.20;48.00;;;;;;6150293;23;20157;-83
2022/03/31 05:20:25;;;;;;;1.60;1.50;;;18.20;48.00;;;;;;6174393;23;20204;-84
2022/03/31 05:22:57;;;;;;;2.45;1.60;;;18.20;47.60;;;;;;6148334;23;20615;-83
2022/03/31 05:25:25;;;;;;;3.00;1.75;;;18.20;47.20;;;;;;6177264;23;20251;-84
2022/03/31 05:28:00;;;;;;;1.60;1.50;;;18.30;47.40;;;;;;6152059;23;20179;-84
2022/03/31 05:30:28;;;;;;;4.15;1.70;;;18.20;47.20;;;;;;6152777;23;20192;-87
2022/03/31 05:32:59;;;;;;;3.90;1.60;;;18.30;47.30;;;;;;6152830;23;20149;-82
2022/03/31 05:35:27;;;;;;;3.88;1.70;;;18.30;47.30;;;;;;6151677;23;20191;-87
2022/03/31 05:37:53;;;;;;;1.77;1.60;;;18.30;47.60;;;;;;6175864;23;20161;-83
2022/03/31 05:40:20;;;;;;;2.35;1.65;;;18.30;47.10;;;;;;6225736;23;20168;-83
2022/03/31 05:42:47;;;;;;;2.63;1.50;;;18.30;47.10;;;;;;6201021;23;20177;-87
2022/03/31 05:45:13;;;;;;;2.75;1.40;;;18.30;46.60;;;;;;6226331;23;20180;-83
2022/03/31 05:47:42;;;;;;;2.42;1.90;;;18.40;46.10;;;;;;6200990;23;20137;-85
2022/03/31 05:50:11;;;;;;;1.98;1.52;;;18.40;46.70;;;;;;6201229;23;20145;-85
2022/03/31 05:52:42;;;;;;;1.75;1.58;;;18.40;46.20;;;;;;6175930;23;20145;-84
2022/03/31 05:55:09;;;;;;;2.40;1.48;;;18.40;46.40;;;;;;6203797;23;20156;-86
2022/03/31 05:57:35;;;;;;;2.95;1.80;;;18.30;47.20;;;;;;6176816;23;20495;-84
2022/03/31 06:00:04;;;;;;;2.35;1.60;;;18.40;46.30;;;;;;6225101;23;20161;-87
2022/03/31 06:02:30;;;;;;;3.00;1.52;;;18.50;46.60;;;;;;6228807;23;20153;-82
2022/03/31 06:04:56;;;;;;;3.13;1.70;;;18.50;47.30;;;;;;6207048;23;20157;-81
2022/03/31 06:07:22;;;;;;;3.53;1.60;;;18.50;47.70;;;;;;6233868;23;20208;-81
2022/03/31 06:09:51;;;;;;;3.45;1.80;;;18.50;47.30;;;;;;6209826;23;20149;-81
2022/03/31 06:12:18;;;;;;;2.83;1.52;;;18.60;46.80;;;;;;6208867;23;20531;-82
2022/03/31 06:14:47;;;;;;;2.65;1.70;;;18.60;46.40;;;;;;6209095;23;20231;-81
2022/03/31 06:17:20;;;;;;;2.88;1.60;;;18.60;46.10;;;;;;6234239;23;20162;-81
2022/03/31 06:19:51;;;;;;;3.00;1.63;;;18.60;46.40;;;;;;6158783;23;20156;-81
2022/03/31 06:22:20;;;;;;;2.47;1.67;;;18.60;46.00;;;;;;6158295;23;20192;-81
2022/03/31 06:24:52;;;;;;;1.98;1.50;;;18.60;45.90;;;;;;6157237;23;20255;-82
2022/03/31 06:27:21;;;;;;;2.80;1.80;;;18.70;45.50;;;;;;6158167;23;20535;-82
2022/03/31 06:29:48;;;;;;;2.63;1.75;;;18.60;44.50;;;;;;6209457;23;20188;-82
2022/03/31 06:32:16;;;;;;;1.90;1.70;;;18.70;44.40;;;;;;6234522;23;20222;-82
2022/03/31 06:34:45;;;;;;;2.50;1.90;;;18.70;44.90;;;;;;6208411;23;20157;-82
2022/03/31 06:37:10;;;;;;;3.15;1.80;;;18.80;44.70;;;;;;6158936;23;20176;-82
2022/03/31 06:39:41;;;;;;;2.40;1.70;;;18.80;44.70;;;;;;6184601;23;20169;-82
2022/03/31 06:42:08;;;;;;;3.70;1.50;;;18.80;45.10;;;;;;6183263;23;20149;-82
2022/03/31 06:44:34;;;;;;;2.08;1.75;;;18.80;44.60;;;;;;6209482;23;20152;-82
2022/03/31 06:46:59;;;;;;;1.70;1.30;;;18.70;44.80;;;;;;6183014;23;20236;-85
2022/03/31 06:49:29;;;;;;;1.75;1.58;;;18.80;45.00;;;;;;6199063;23;20134;-86
2022/03/31 06:51:56;;;;;;;1.55;1.45;;;18.80;44.80;;;;;;6171690;23;20160;-87
2022/03/31 06:54:23;;;;;;;3.40;1.80;;;18.80;45.00;;;;;;6147651;23;20149;-88
2022/03/31 06:56:55;;;;;;;2.38;1.70;;;18.80;44.90;;;;;;6147236;23;20232;-86
2022/03/31 06:59:22;;;;;;;2.97;1.58;;;18.80;44.00;;;;;;6172081;23;20585;-89
2022/03/31 07:01:49;;;;;;;2.25;1.77;;;18.80;44.90;;;;;;6152259;23;20156;-86
2022/03/31 07:04:15;;;;;;;1.85;1.50;;;18.80;44.80;;;;;;6147297;23;20240;-87
2022/03/31 07:06:41;;;;;;;1.65;1.40;;;18.80;44.60;;;;;;6199103;23;20631;-85
2022/03/31 07:09:11;;;;;;;2.53;1.88;;;18.80;44.50;;;;;;6198046;23;20142;-88
2022/03/31 07:11:37;;;;;;;2.42;1.52;;;18.80;44.80;;;;;;6226263;23;20462;-86
2022/03/31 07:14:05;;;;;;;2.05;1.50;;;18.80;45.00;;;;;;6229065;23;20205;-85
2022/03/31 07:16:31;;;;;;;1.67;1.55;;;18.90;45.00;;;;;;6229786;23;20141;-86
2022/03/31 07:18:58;;;;;;;3.72;1.60;;;18.70;44.60;;;;;;6228436;23;20177;-87
2022/03/31 07:21:25;;;;;;;2.85;1.42;;;18.80;45.00;;;;;;6206153;23;20177;-84
2022/03/31 07:23:51;;;;;;;2.33;1.63;;;18.80;44.60;;;;;;6230594;23;20560;-85
2022/03/31 07:26:19;;;;;;;1.45;1.30;;;18.80;44.70;;;;;;6226153;23;20177;-86
2022/03/31 07:28:45;;;;;;;1.88;1.48;;;18.80;44.60;;;;;;6208166;23;20176;-85
2022/03/31 07:31:15;;;;;;;4.03;1.58;;;18.80;44.00;;;;;;6182286;23;20157;-85
2022/03/31 07:33:46;;;;;;;1.55;1.40;;;18.90;44.00;;;;;;6229380;23;20146;-86
2022/03/31 07:36:17;;;;;;;1.80;1.55;;;19.00;44.00;;;;;;6148737;23;20176;-85
2022/03/31 07:38:46;;;;;;;1.65;1.48;;;18.90;43.90;;;;;;6152192;23;20153;-89
2022/03/31 07:41:12;;;;;;;3.25;1.40;;;18.90;43.90;;;;;;6204124;23;20130;-86
2022/03/31 07:43:38;;;;;;;2.15;1.55;;;18.90;44.00;;;;;;6228765;23;20232;-83
2022/03/31 07:46:04;;;;;;;1.95;1.60;;;18.90;44.00;;;;;;6177185;23;20260;-83
2022/03/31 07:48:30;;;;;;;2.08;1.40;;;19.00;44.00;;;;;;6232027;23;20254;-83
2022/03/31 07:50:58;;;;;;;1.65;1.52;;;19.00;44.30;;;;;;6209035;23;20554;-84
2022/03/31 07:53:27;;;;;;;2.05;1.38;;;19.00;44.20;;;;;;6209177;23;20126;-84
2022/03/31 07:55:54;;;;;;;2.50;1.80;;;18.90;44.20;;;;;;6234184;23;20137;-84
2022/03/31 07:58:22;;;;;;;2.00;1.48;;;19.00;44.00;;;;;;6260068;23;20512;-85
2022/03/31 08:00:53;;;;;;;2.03;1.60;;;19.00;44.00;;;;;;6206306;23;20501;-85
2022/03/31 08:03:23;;;;;;;2.00;1.27;;;19.00;44.00;;;;;;6180928;23;20160;-83
2022/03/31 08:05:53;;;;;;;2.72;1.70;;;19.00;43.70;;;;;;6159129;23;20184;-83
2022/03/31 08:08:22;;;;;;;1.90;1.30;;;19.00;43.70;;;;;;6133463;23;20588;-84
2022/03/31 08:10:51;;;;;;;2.38;1.45;;;19.00;43.80;;;;;;6181103;23;20652;-84
2022/03/31 08:13:28;;;;;;;3.00;1.55;;;19.10;43.50;;;;;;6180605;23;20189;-85
2022/03/31 08:15:58;;;;;;;2.92;1.60;;;19.10;44.10;;;;;;6156570;23;20210;-84
2022/03/31 08:18:34;;;;;;;3.42;1.52;;;19.00;44.10;;;;;;6158825;23;20157;-83
2022/03/31 08:21:00;;;;;;;1.60;1.42;;;19.00;44.30;;;;;;6180500;23;20231;-89
2022/03/31 08:23:31;;;;;;;1.50;1.35;;;18.90;44.20;;;;;;6208950;23;20137;-85
2022/03/31 08:25:56;;;;;;;2.30;1.63;;;19.00;43.80;;;;;;6181757;23;20187;-84
2022/03/31 08:28:25;;;;;;;1.83;1.30;;;19.00;43.70;;;;;;6231648;23;20137;-83
2022/03/31 08:30:52;;;;;;;2.28;1.83;;;19.00;43.90;;;;;;6205429;23;20272;-84
2022/03/31 08:33:17;;;;;;;2.17;1.40;;;19.10;43.90;;;;;;6230157;23;20133;-87
2022/03/31 08:35:43;;;;;;;1.80;1.58;;;19.00;43.10;;;;;;6204656;23;20232;-85
2022/03/31 08:38:10;;;;;;;1.95;1.50;;;19.10;43.50;;;;;;6205524;23;20140;-83
2022/03/31 08:40:45;;;;;;;1.92;1.30;;;19.00;43.90;;;;;;6233456;23;20180;-85
2022/03/31 08:43:10;;;;;;;1.70;1.48;;;19.10;43.50;;;;;;6232065;23;20129;-83
2022/03/31 08:45:36;;;;;;;1.80;1.30;;;19.10;43.60;;;;;;6233099;23;20169;-83
2022/03/31 08:48:03;;;;;;;2.20;1.60;;;19.10;43.50;;;;;;6233346;23;20165;-84
2022/03/31 08:50:29;;;;;;;2.10;1.33;;;19.00;43.50;;;;;;6209288;23;20550;-83
2022/03/31 08:53:01;;;;;;;2.67;1.40;;;19.00;43.50;;;;;;6235010;23;20138;-82
2022/03/31 08:55:34;;;;;;;3.80;1.30;;;19.00;43.50;;;;;;6209008;23;20145;-82
2022/03/31 08:58:04;;;;;;;1.88;1.30;;;19.10;43.50;;;;;;6158534;23;20153;-82
2022/03/31 09:00:31;;;;;;;1.38;1.25;;;19.10;43.00;;;;;;6183263;23;20157;-82
2022/03/31 09:03:02;;;;;;;1.70;1.38;;;19.10;43.20;;;;;;6159373;23;20161;-83
2022/03/31 09:05:35;;;;;;;1.95;1.40;;;19.10;43.70;;;;;;6158633;23;20205;-83
2022/03/31 09:08:05;;;;;;;4.00;1.45;;;19.10;44.20;;;;;;6209105;23;20125;-87
2022/03/31 09:10:35;;;;;;;4.10;1.20;;;19.10;43.50;;;;;;6158356;23;20165;-84
2022/03/31 09:13:04;;;;;;;2.95;1.50;;;19.10;43.70;;;;;;6158170;23;20156;-83
2022/03/31 09:15:32;;;;;;;2.03;1.40;;;19.10;44.20;;;;;;6134079;23;20596;-83
2022/03/31 09:18:00;;;;;;;2.65;1.45;;;19.00;43.30;;;;;;6157744;23;20176;-83
2022/03/31 09:20:40;;;;;;;1.80;1.42;;;19.10;43.90;;;;;;6182806;23;20148;-83
2022/03/31 09:23:06;;;;;;;2.42;1.65;;;19.10;43.40;;;;;;6208862;23;20176;-83
2022/03/31 09:25:34;;;;;;;1.55;1.40;;;19.10;43.70;;;;;;6208812;23;20518;-83
2022/03/31 09:28:13;;;;;;;1.48;1.20;;;19.10;43.30;;;;;;6207283;23;20570;-83
2022/03/31 09:30:49;;;;;;;1.83;1.40;;;19.10;43.90;;;;;;6183855;23;20612;-84
2022/03/31 09:33:34;;;;;;;2.42;1.40;;;19.00;43.80;;;;;;6156669;23;20179;-85
2022/03/31 09:36:17;;;;;;;2.08;1.40;;;19.00;43.90;;;;;;6182376;23;20184;-84
2022/03/31 09:39:05;;;;;;;2.47;1.60;;;19.00;44.00;;;;;;6138711;23;20240;-83
2022/03/31 09:41:34;;;;;;;2.00;1.48;;;19.00;44.40;;;;;;6206838;23;20605;-84
2022/03/31 09:44:02;;;;;;;1.55;1.25;;;19.10;43.20;;;;;;6209316;23;20164;-84
2022/03/31 09:46:33;;;;;;;1.60;1.23;;;19.10;43.40;;;;;;6233280;23;20212;-86
2022/03/31 09:49:17;;;;;;;1.83;1.40;;;19.10;43.20;;;;;;6209608;23;20152;-84
2022/03/31 09:51:45;;;;;;;1.75;1.33;;;19.10;43.20;;;;;;6185270;23;20149;-82
2022/03/31 09:54:11;;;;;;;1.70;1.33;;;19.10;43.30;;;;;;6184329;23;20219;-88
2022/03/31 09:56:40;;;;;;;3.63;1.25;;;19.10;43.60;;;;;;6182735;23;20149;-85
2022/03/31 09:59:11;;;;;;;1.85;1.45;;;19.10;43.60;;;;;;6180833;23;20248;-84
2022/03/31 10:01:41;;;;;;;1.63;1.48;;;19.00;43.90;;;;;;6158309;23;20160;-86
2022/03/31 10:04:13;;;;;;;2.70;1.60;;;19.00;43.50;;;;;;6181067;23;20156;-84
2022/03/31 10:06:41;;;;;;;2.80;1.55;;;19.00;43.40;;;;;;6157226;23;20181;-83
2022/03/31 10:09:13;;;;;;;1.60;1.35;;;19.00;43.00;;;;;;6209941;23;20130;-84
2022/03/31 10:11:44;;;;;;;2.85;1.60;;;19.10;43.10;;;;;;6135288;23;20169;-84
2022/03/31 10:14:20;;;;;;;1.42;1.33;;;19.10;44.10;;;;;;6157929;23;20149;-86
2022/03/31 10:16:52;;;;;;;2.47;1.50;;;19.00;43.60;;;;;;6209160;23;20611;-85
2022/03/31 10:19:35;;;;;;;2.20;1.33;;;19.00;44.10;;;;;;6232563;23;20576;-88
2022/03/31 10:24:41;;;;;;;1.38;1.27;;;19.00;43.60;;;;;;6227747;23;20130;-88
2022/03/31 10:25:15;;;;;;;2.78;1.58;;;19.00;44.20;;;;;;6232111;23;20187;-89
2022/03/31 10:27:45;;;;;;;3.08;1.38;;;19.00;44.10;;;;;;6223768;23;20203;-87
2022/03/31 10:30:21;;;;;;;1.50;1.30;;;19.00;44.20;;;;;;6151947;23;20193;-87
2022/03/31 10:33:08;;;;;;;1.85;1.30;;;18.90;44.20;;;;;;6151751;23;20181;-86
2022/03/31 10:35:37;;;;;;;1.45;1.35;;;18.90;44.40;;;;;;6149073;23;20207;-88
2022/03/31 10:38:23;;;;;;;1.83;1.40;;;19.00;44.20;;;;;;6173056;23;20256;-86
2022/03/31 10:40:52;;;;;;;3.28;1.23;;;18.90;44.40;;;;;;6224745;23;20268;-86
2022/03/31 10:43:22;;;;;;;2.70;1.58;;;19.00;44.00;;;;;;6200582;23;20153;-88
2022/03/31 10:45:48;;;;;;;2.95;1.70;;;19.00;44.20;;;;;;6178023;23;20196;-85
2022/03/31 10:48:24;;;;;;;1.40;1.30;;;19.00;43.70;;;;;;6206097;23;20136;-86
2022/03/31 10:51:10;;;;;;;3.50;1.63;;;19.00;42.50;;;;;;6181122;23;20179;-88
2022/03/31 10:53:44;;;;;;;2.45;1.30;;;19.10;43.30;;;;;;6174333;23;20200;-86
2022/03/31 10:56:26;;;;;;;5.13;1.70;;;19.10;43.50;;;;;;6151815;23;20233;-88
2022/03/31 10:58:55;;;;;;;2.75;1.20;;;19.10;43.50;;;;;;6223796;23;20145;-88
2022/03/31 11:01:23;;;;;;;5.40;1.88;;;19.10;43.60;;;;;;6173404;23;20149;-87
2022/03/31 11:03:50;;;;;;;4.03;1.63;;;19.10;44.50;;;;;;6222356;23;20134;-89
2022/03/31 11:06:18;;;;;;;2.55;1.70;;;19.00;44.40;;;;;;6197020;23;20208;-85
2022/03/31 11:08:47;;;;;;;4.15;1.73;;;19.00;44.70;;;;;;6148663;23;20150;-88
2022/03/31 11:11:23;;;;;;;2.67;1.50;;;19.00;45.00;;;;;;6148302;23;20206;-88
2022/03/31 11:13:51;;;;;;;3.50;1.95;;;19.00;44.90;;;;;;6147147;23;20232;-84
2022/03/31 11:16:18;;;;;;;1.70;1.40;;;19.00;45.60;;;;;;6171330;23;20158;-84
2022/03/31 11:18:56;;;;;;;2.60;1.50;;;19.00;44.90;;;;;;6123250;23;20171;-86
2022/03/31 11:21:23;;;;;;;5.07;1.98;;;19.10;44.80;;;;;;6151656;23;20240;-85
2022/03/31 11:23:52;;;;;;;3.13;1.73;;;19.10;45.50;;;;;;6177071;23;20176;-85
2022/03/31 11:26:40;;;;;;;3.42;1.80;;;19.00;45.80;;;;;;6157452;23;20184;-84
2022/03/31 11:29:31;;;;;;;2.83;1.80;;;19.00;46.60;;;;;;6111614;23;20178;-86
2022/03/31 11:32:05;;;;;;;2.83;1.80;;;19.00;46.00;;;;;;6110583;23;20152;-84
2022/03/31 11:34:45;;;;;;;2.88;1.50;;;19.00;46.70;;;;;;6090399;23;20153;-85
2022/03/31 11:37:20;;;;;;;1.83;1.38;;;19.00;45.70;;;;;;6139040;23;20155;-87
2022/03/31 11:39:47;;;;;;;3.17;1.83;;;19.00;46.20;;;;;;6088376;23;20335;-85
2022/03/31 11:42:13;;;;;;;5.78;1.55;;;19.00;45.70;;;;;;6112692;23;20149;-85
2022/03/31 11:44:41;;;;;;;3.13;1.65;;;19.00;45.10;;;;;;6132867;23;20163;-86
2022/03/31 11:47:27;;;;;;;3.03;1.75;;;19.00;45.20;;;;;;6111375;23;20187;-91
2022/03/31 11:50:07;;;;;;;1.77;1.55;;;18.90;45.30;;;;;;6115338;23;20568;-84
2022/03/31 11:52:33;;;;;;;2.50;1.45;;;19.00;45.50;;;;;;6072212;23;20148;-85
2022/03/31 11:55:02;;;;;;;3.13;1.50;;;18.90;45.00;;;;;;6139874;23;20171;-84
2022/03/31 11:57:28;;;;;;;2.47;1.60;;;19.00;45.30;;;;;;6115500;23;20270;-84
2022/03/31 12:00:18;;;;;;;3.40;1.65;;;19.00;44.60;;;;;;6141353;23;20148;-87
2022/03/31 12:03:02;;;;;;;2.80;1.88;;;19.00;45.50;;;;;;6123236;23;20151;-85
2022/03/31 12:05:29;;;;;;;2.08;1.52;;;19.00;46.00;;;;;;6138664;23;20240;-87
2022/03/31 12:07:59;;;;;;;4.00;1.77;;;19.00;45.60;;;;;;6113138;23;20343;-88
2022/03/31 12:10:24;;;;;;;2.10;1.38;;;19.10;45.70;;;;;;6111712;23;20155;-86
2022/03/31 12:12:56;;;;;;;5.70;1.73;;;19.10;44.30;;;;;;6108870;23;20151;-85
2022/03/31 12:15:24;;;;;;;6.65;1.50;;;19.10;45.10;;;;;;6110064;23;20259;-85
2022/03/31 12:18:12;;;;;;;6.25;1.40;;;19.10;46.40;;;;;;6111352;23;20147;-85
2022/03/31 12:20:46;;;;;;;3.30;1.58;;;19.10;46.20;;;;;;6112157;23;20147;-84
2022/03/31 12:23:25;;;;;;;3.50;1.40;;;19.10;46.50;;;;;;6061135;23;20247;-88
2022/03/31 12:25:51;;;;;;;4.43;1.40;;;19.10;46.30;;;;;;6160165;23;20182;-82
2022/03/31 12:28:20;;;;;;;3.25;1.63;;;19.10;45.80;;;;;;6134825;23;20339;-86
2022/03/31 12:30:51;;;;;;;2.97;1.40;;;19.10;45.90;;;;;;6110750;23;20694;-85
2022/03/31 12:33:23;;;;;;;1.90;1.52;;;19.10;46.00;;;;;;6174962;23;20149;-83
2022/03/31 12:36:04;;;;;;;3.42;1.70;;;19.10;45.90;;;;;;6232238;23;20133;-86
2022/03/31 12:38:48;;;;;;;1.88;1.40;;;19.10;45.60;;;;;;6180391;23;20154;-86
2022/03/31 12:41:34;;;;;;;3.20;1.67;;;19.00;45.70;;;;;;6131902;23;20149;-81
2022/03/31 12:44:10;;;;;;;2.80;1.67;;;19.10;45.90;;;;;;6155885;23;20180;-86
2022/03/31 12:46:38;;;;;;;2.45;1.48;;;19.00;47.00;;;;;;6203266;23;20246;-87
2022/03/31 12:49:07;;;;;;;4.78;1.52;;;19.10;46.50;;;;;;6204498;23;20141;-83
2022/03/31 12:51:48;;;;;;;3.03;1.65;;;19.10;45.70;;;;;;6203233;23;20146;-84
2022/03/31 12:54:21;;;;;;;3.63;1.50;;;19.10;45.30;;;;;;6231140;23;20168;-89
2022/03/31 12:56:57;;;;;;;4.93;1.67;;;19.10;45.30;;;;;;6154035;23;20153;-85
2022/03/31 12:59:30;;;;;;;5.03;1.80;;;19.20;44.90;;;;;;6154858;23;20210;-84
2022/03/31 13:02:12;;;;;;;6.30;1.42;;;19.10;47.60;;;;;;6154361;23;20161;-88
2022/03/31 13:04:44;;;;;;;6.60;1.65;;;19.10;45.60;;;;;;6228240;23;20134;-85